Time;durP1;ratioP1;P1;durP2;ratioP2;P2;SDS_P1;SDS_P2;PMS_P1;PMS_P2;Temp;Humidity;BMP_temperature;BMP_pressure;BME280_temperature;BME280_humidity;BME280_pressure;Samples;Min_cycle;Max_cycle;Signal;HPM_P1;HPM_P2
2022/04/03 05:23:12;;;;;;;21.80;14.38;;;;;;;;;;5200263;23;20065;-70
2022/04/03 05:25:38;;;;;;;20.15;13.27;;;;;;;;;;4954947;29;20067;-68
2022/04/03 05:28:05;;;;;;;22.23;13.48;;;;;;;;;;4954970;29;20034;-70
2022/04/03 05:30:31;;;;;;;21.33;12.55;;;;;;;;;;4955247;29;20031;-69
2022/04/03 05:33:02;;;;;;;18.58;12.52;;;;;;;;;;4955425;29;20031;-71
2022/04/03 05:35:28;;;;;;;20.48;12.40;;;;;;;;;;4938183;29;20024;-70
2022/04/03 05:37:55;;;;;;;18.73;12.25;;;;;;;;;;4955517;29;20035;-70
2022/04/03 05:40:21;;;;;;;21.17;12.25;;;;;;;;;;4955447;29;20467;-70
2022/04/03 05:42:47;;;;;;;17.98;11.95;;;;;;;;;;4954725;28;20046;-71
2022/04/03 05:45:14;;;;;;;17.55;12.02;;;;;;;;;;4955066;29;20030;-70
2022/04/03 05:47:40;;;;;;;17.08;12.07;;;;;;;;;;4955510;29;20062;-71
2022/04/03 05:50:07;;;;;;;19.48;11.85;;;;;;;;;;4955079;29;20030;-75
2022/04/03 05:52:40;;;;;;;17.98;11.43;;;;;;;;;;4955068;29;20027;-70
2022/04/03 05:55:08;;;;;;;16.70;11.52;;;;;;;;;;4955155;29;20035;-70
2022/04/03 05:57:34;;;;;;;18.35;11.60;;;;;;;;;;4955155;29;20055;-73
2022/04/03 06:00:00;;;;;;;15.10;10.30;;;;;;;;;;4954979;29;20027;-71
2022/04/03 06:02:26;;;;;;;15.18;10.82;;;;;;;;;;4955051;29;20904;-71
2022/04/03 06:04:53;;;;;;;14.32;9.80;;;;;;;;;;4938008;29;20368;-71
2022/04/03 06:07:19;;;;;;;15.85;10.95;;;;;;;;;;4954816;29;20483;-70
2022/04/03 06:09:45;;;;;;;13.70;9.95;;;;;;;;;;4954988;29;20111;-70
2022/04/03 06:12:11;;;;;;;14.90;10.05;;;;;;;;;;4955071;29;20027;-74
2022/04/03 06:14:37;;;;;;;15.55;10.35;;;;;;;;;;4954977;29;20032;-70
2022/04/03 06:17:03;;;;;;;16.23;10.20;;;;;;;;;;4954625;29;20030;-71
2022/04/03 06:19:29;;;;;;;14.13;10.10;;;;;;;;;;4955013;29;20143;-78
2022/04/03 06:21:55;;;;;;;14.52;9.77;;;;;;;;;;4954846;29;20063;-70
2022/04/03 06:24:21;;;;;;;13.68;9.68;;;;;;;;;;4954840;29;20031;-70
2022/04/03 06:26:47;;;;;;;13.45;8.95;;;;;;;;;;4954940;29;20256;-70
2022/04/03 06:29:13;;;;;;;13.70;9.15;;;;;;;;;;4954502;29;20063;-69
2022/04/03 06:31:39;;;;;;;14.05;9.05;;;;;;;;;;4954670;29;20480;-68
2022/04/03 06:34:05;;;;;;;13.23;8.82;;;;;;;;;;4954395;29;20383;-70
2022/04/03 06:36:31;;;;;;;15.13;9.27;;;;;;;;;;4954419;29;20033;-71
2022/04/03 06:38:57;;;;;;;14.40;9.10;;;;;;;;;;4954470;29;20023;-70
2022/04/03 06:41:24;;;;;;;12.43;9.02;;;;;;;;;;4954332;29;20043;-70
2022/04/03 06:43:50;;;;;;;12.20;8.55;;;;;;;;;;4954091;29;20023;-69
2022/04/03 06:46:16;;;;;;;11.52;8.18;;;;;;;;;;4954118;29;20063;-74
2022/04/03 06:48:42;;;;;;;13.13;7.85;;;;;;;;;;4954644;29;20502;-71
2022/04/03 06:51:08;;;;;;;12.20;7.78;;;;;;;;;;4954256;29;20451;-70
2022/04/03 06:53:34;;;;;;;10.63;7.78;;;;;;;;;;4952902;28;20380;-75
2022/04/03 06:56:00;;;;;;;10.35;7.43;;;;;;;;;;4953829;29;20561;-70
2022/04/03 06:58:26;;;;;;;11.88;7.95;;;;;;;;;;4954052;29;20063;-72
2022/04/03 07:00:52;;;;;;;12.30;7.88;;;;;;;;;;4936803;29;20040;-72
2022/04/03 07:03:18;;;;;;;12.10;8.35;;;;;;;;;;4954073;29;20035;-70
2022/04/03 07:05:44;;;;;;;11.95;7.80;;;;;;;;;;4953927;29;20071;-70
2022/04/03 07:08:10;;;;;;;12.20;8.18;;;;;;;;;;4953824;29;20035;-71
2022/04/03 07:10:36;;;;;;;12.90;7.90;;;;;;;;;;4953991;29;20033;-71
2022/04/03 07:13:03;;;;;;;12.52;7.18;;;;;;;;;;4953796;29;20106;-71
2022/04/03 07:15:29;;;;;;;10.80;7.57;;;;;;;;;;4953886;29;20023;-75
2022/04/03 07:17:55;;;;;;;13.02;8.88;;;;;;;;;;4953557;29;20023;-72
2022/04/03 07:20:21;;;;;;;14.48;8.07;;;;;;;;;;4954210;29;20027;-71
2022/04/03 07:22:47;;;;;;;12.77;7.82;;;;;;;;;;4953349;29;20061;-71
2022/04/03 07:25:13;;;;;;;11.82;7.55;;;;;;;;;;4953624;29;20133;-71
2022/04/03 07:27:40;;;;;;;9.80;6.93;;;;;;;;;;4953606;29;20475;-70
2022/04/03 07:30:08;;;;;;;12.95;7.82;;;;;;;;;;4953459;29;20035;-70
2022/04/03 07:32:34;;;;;;;10.98;7.00;;;;;;;;;;4953485;29;20023;-73
2022/04/03 07:35:00;;;;;;;12.80;7.55;;;;;;;;;;4953925;29;20103;-71
2022/04/03 07:37:26;;;;;;;11.38;7.32;;;;;;;;;;4936720;29;20087;-72
2022/04/03 07:39:53;;;;;;;12.50;7.45;;;;;;;;;;4953524;29;20094;-74
2022/04/03 07:42:19;;;;;;;12.35;7.63;;;;;;;;;;4935616;29;20050;-71
2022/04/03 07:44:45;;;;;;;13.23;7.85;;;;;;;;;;4935197;29;20035;-69
2022/04/03 07:47:11;;;;;;;12.10;7.35;;;;;;;;;;4952980;29;20037;-75
2022/04/03 07:49:37;;;;;;;13.60;7.55;;;;;;;;;;4954330;29;20111;-83
2022/04/03 07:52:04;;;;;;;12.15;7.38;;;;;;;;;;4954207;29;20120;-80
2022/04/03 07:54:30;;;;;;;11.23;7.30;;;;;;;;;;4952701;29;20083;-69
2022/04/03 07:56:56;;;;;;;13.55;7.60;;;;;;;;;;4951986;29;20027;-72
2022/04/03 07:59:22;;;;;;;11.73;7.28;;;;;;;;;;4939426;29;20106;-72
2022/04/03 08:01:48;;;;;;;12.70;7.95;;;;;;;;;;4936480;29;20114;-71
2022/04/03 08:04:15;;;;;;;13.90;7.15;;;;;;;;;;4936970;29;20070;-76
2022/04/03 08:06:41;;;;;;;10.63;6.93;;;;;;;;;;4939941;29;20028;-69
2022/04/03 08:09:07;;;;;;;9.93;6.80;;;;;;;;;;4938129;29;20115;-67
2022/04/03 08:11:33;;;;;;;11.15;6.50;;;;;;;;;;4923009;29;20035;-70
2022/04/03 08:14:00;;;;;;;10.05;6.63;;;;;;;;;;4942034;29;20035;-72
2022/04/03 08:16:27;;;;;;;10.85;7.10;;;;;;;;;;4939591;29;20036;-70
2022/04/03 08:18:53;;;;;;;11.35;6.93;;;;;;;;;;4948336;29;20040;-79
2022/04/03 08:21:19;;;;;;;9.77;6.38;;;;;;;;;;4941451;29;20044;-74
2022/04/03 08:23:45;;;;;;;10.63;7.00;;;;;;;;;;4915802;29;20385;-67
2022/04/03 08:26:12;;;;;;;9.48;7.07;;;;;;;;;;4929375;29;20035;-77
2022/04/03 08:28:38;;;;;;;10.05;6.80;;;;;;;;;;4952685;29;20402;-67
2022/04/03 08:31:04;;;;;;;12.68;6.50;;;;;;;;;;4952976;29;20050;-67
2022/04/03 08:33:31;;;;;;;12.82;7.28;;;;;;;;;;4953070;29;20027;-69
2022/04/03 08:35:57;;;;;;;9.90;6.28;;;;;;;;;;4953166;29;20031;-69
2022/04/03 08:38:23;;;;;;;10.23;6.70;;;;;;;;;;4952552;29;20098;-67
2022/04/03 08:40:50;;;;;;;9.30;6.22;;;;;;;;;;4952622;29;20035;-68
2022/04/03 08:43:16;;;;;;;13.43;7.28;;;;;;;;;;4952715;29;20394;-68
2022/04/03 08:45:42;;;;;;;10.48;6.40;;;;;;;;;;4952737;29;20015;-68
2022/04/03 08:48:09;;;;;;;10.82;6.53;;;;;;;;;;4952695;29;20030;-69
2022/04/03 08:50:36;;;;;;;10.27;6.40;;;;;;;;;;4952488;29;20527;-80
2022/04/03 08:53:04;;;;;;;12.68;6.47;;;;;;;;;;4952623;29;20035;-67
2022/04/03 08:55:31;;;;;;;12.00;6.93;;;;;;;;;;4952897;29;20035;-68
2022/04/03 08:57:57;;;;;;;10.30;6.70;;;;;;;;;;4952292;29;20035;-68
2022/04/03 09:00:23;;;;;;;10.27;6.63;;;;;;;;;;4953025;29;20027;-67
2022/04/03 09:02:53;;;;;;;12.10;6.95;;;;;;;;;;4952515;29;20039;-70
2022/04/03 09:05:19;;;;;;;11.48;6.65;;;;;;;;;;4952606;29;20024;-67
2022/04/03 09:07:59;;;;;;;10.82;7.18;;;;;;;;;;4952774;29;20038;-68
2022/04/03 09:10:25;;;;;;;11.18;6.28;;;;;;;;;;4952525;29;20050;-68
2022/04/03 09:12:51;;;;;;;11.10;7.00;;;;;;;;;;4952428;29;20107;-67
2022/04/03 09:15:18;;;;;;;11.05;6.25;;;;;;;;;;4952157;28;20332;-66
2022/04/03 09:17:45;;;;;;;9.80;6.35;;;;;;;;;;4954821;29;20083;-68
2022/04/03 09:20:12;;;;;;;9.90;6.45;;;;;;;;;;4938389;29;20031;-67
2022/04/03 09:22:39;;;;;;;11.13;6.13;;;;;;;;;;4955127;29;20106;-67
2022/04/03 09:25:06;;;;;;;12.32;6.97;;;;;;;;;;4955481;29;20023;-73
2022/04/03 09:27:45;;;;;;;10.80;6.47;;;;;;;;;;4955344;29;20058;-67
2022/04/03 09:30:11;;;;;;;11.07;6.78;;;;;;;;;;4955359;29;20043;-67
2022/04/03 09:32:48;;;;;;;14.85;7.60;;;;;;;;;;4955362;29;20027;-67
2022/04/03 09:35:14;;;;;;;11.27;6.07;;;;;;;;;;4954843;29;20038;-70
2022/04/03 09:38:00;;;;;;;11.43;6.75;;;;;;;;;;4955385;29;20110;-68
2022/04/03 09:40:33;;;;;;;10.02;6.32;;;;;;;;;;4955943;29;20027;-71
2022/04/03 09:42:59;;;;;;;;;;;;;;;;;;4956182;29;20106;-72
2022/04/03 09:45:25;;;;;;;11.15;6.93;;;;;;;;;;4955645;29;20004;-75
2022/04/03 09:47:52;;;;;;;13.13;6.60;;;;;;;;;;4955321;29;20027;-73
2022/04/03 09:50:18;;;;;;;11.15;6.72;;;;;;;;;;4955801;29;20064;-73
2022/04/03 09:52:45;;;;;;;10.45;6.55;;;;;;;;;;4955131;29;20035;-71
2022/04/03 09:55:17;;;;;;;12.23;6.57;;;;;;;;;;4955172;29;20102;-81
2022/04/03 09:57:51;;;;;;;9.40;6.55;;;;;;;;;;4937922;29;20451;-71
2022/04/03 10:00:33;;;;;;;11.85;6.68;;;;;;;;;;4955298;29;20542;-71
2022/04/03 10:03:00;;;;;;;15.50;7.18;;;;;;;;;;4955142;29;20047;-66
2022/04/03 10:05:28;;;;;;;11.27;6.50;;;;;;;;;;4955201;29;20033;-70
2022/04/03 10:07:54;;;;;;;12.43;6.30;;;;;;;;;;4954750;29;20031;-69
2022/04/03 10:10:20;;;;;;;9.38;5.93;;;;;;;;;;4954888;29;20027;-82
2022/04/03 10:12:46;;;;;;;12.38;6.72;;;;;;;;;;4953189;29;20487;-73
2022/04/03 10:15:12;;;;;;;11.07;6.70;;;;;;;;;;4937982;29;20399;-67
2022/04/03 10:17:38;;;;;;;11.75;6.72;;;;;;;;;;4935696;29;20421;-70
2022/04/03 10:20:06;;;;;;;14.30;7.53;;;;;;;;;;4935578;29;20054;-67
2022/04/03 10:22:34;;;;;;;15.88;7.75;;;;;;;;;;4935068;29;20059;-68
2022/04/03 10:25:02;;;;;;;12.52;6.82;;;;;;;;;;4935487;29;20023;-77
2022/04/03 10:27:30;;;;;;;16.38;8.73;;;;;;;;;;4935025;29;20036;-69
2022/04/03 10:29:57;;;;;;;16.95;8.13;;;;;;;;;;4935571;29;20036;-72
2022/04/03 10:32:28;;;;;;;16.60;8.20;;;;;;;;;;4935198;29;20411;-66
2022/04/03 10:34:58;;;;;;;11.43;6.40;;;;;;;;;;4935262;29;20027;-72
2022/04/03 10:37:27;;;;;;;10.60;6.20;;;;;;;;;;4935036;29;20039;-74
2022/04/03 10:39:54;;;;;;;11.50;5.82;;;;;;;;;;4917835;29;20135;-70
2022/04/03 10:42:28;;;;;;;10.73;6.32;;;;;;;;;;4935346;29;20039;-67
2022/04/03 10:45:12;;;;;;;9.10;5.50;;;;;;;;;;4934483;29;20081;-71
2022/04/03 10:47:44;;;;;;;11.50;6.50;;;;;;;;;;4935803;29;20111;-69
2022/04/03 10:50:11;;;;;;;10.45;6.00;;;;;;;;;;4935327;29;20027;-67
2022/04/03 10:52:40;;;;;;;13.07;7.47;;;;;;;;;;4935017;29;20482;-71
2022/04/03 10:55:17;;;;;;;8.43;5.90;;;;;;;;;;4918623;29;20113;-80
2022/04/03 10:57:43;;;;;;;10.80;5.63;;;;;;;;;;4934982;29;20039;-81
2022/04/03 11:00:15;;;;;;;10.18;5.95;;;;;;;;;;4934695;29;20024;-78
2022/04/03 11:02:41;;;;;;;10.88;6.25;;;;;;;;;;4934343;29;20399;-77
2022/04/03 11:05:38;;;;;;;10.48;6.10;;;;;;;;;;4934301;29;20051;-76
2022/04/03 11:08:04;;;;;;;13.73;7.40;;;;;;;;;;4914045;29;20511;-67
2022/04/03 11:10:54;;;;;;;22.27;9.50;;;;;;;;;;4934298;29;20036;-69
2022/04/03 11:13:29;;;;;;;26.38;12.25;;;;;;;;;;4934751;29;20505;-71
2022/04/03 11:16:03;;;;;;;17.38;7.80;;;;;;;;;;4934251;29;20102;-67
2022/04/03 11:18:35;;;;;;;18.30;8.02;;;;;;;;;;4934799;29;20043;-64
2022/04/03 11:21:11;;;;;;;17.65;7.28;;;;;;;;;;4934076;29;20118;-67
2022/04/03 11:23:40;;;;;;;13.85;7.53;;;;;;;;;;4934087;29;20543;-76
2022/04/03 11:26:07;;;;;;;15.75;6.72;;;;;;;;;;4934824;29;20559;-73
2022/04/03 11:28:36;;;;;;;12.13;6.65;;;;;;;;;;4934287;29;20420;-71
2022/04/03 11:31:03;;;;;;;12.60;6.22;;;;;;;;;;4934315;29;20047;-69
2022/04/03 11:33:30;;;;;;;10.80;6.45;;;;;;;;;;4933989;29;20464;-70
2022/04/03 11:36:04;;;;;;;11.93;5.93;;;;;;;;;;4934344;29;20027;-66
2022/04/03 11:38:34;;;;;;;11.35;6.30;;;;;;;;;;4933961;29;20028;-68
2022/04/03 11:41:02;;;;;;;12.13;6.70;;;;;;;;;;4933770;29;20024;-70
2022/04/03 11:43:28;;;;;;;19.48;7.75;;;;;;;;;;4933941;29;20040;-67
2022/04/03 11:45:59;;;;;;;21.50;8.02;;;;;;;;;;4936755;29;20034;-68
2022/04/03 11:48:29;;;;;;;10.82;6.28;;;;;;;;;;4952921;29;20432;-68
2022/04/03 11:51:07;;;;;;;10.07;6.45;;;;;;;;;;4952689;29;20027;-70
2022/04/03 11:53:34;;;;;;;10.38;6.25;;;;;;;;;;4952822;29;20032;-70
2022/04/03 11:56:06;;;;;;;10.48;5.88;;;;;;;;;;4952433;29;20384;-68
2022/04/03 11:58:32;;;;;;;11.25;5.50;;;;;;;;;;4952800;29;20035;-66
2022/04/03 12:00:59;;;;;;;8.07;5.40;;;;;;;;;;4952509;29;20042;-72
2022/04/03 12:03:26;;;;;;;12.98;5.68;;;;;;;;;;4952310;29;20056;-69
2022/04/03 12:05:52;;;;;;;11.07;5.70;;;;;;;;;;4939625;29;20091;-71
2022/04/03 12:08:18;;;;;;;9.73;5.50;;;;;;;;;;4933259;29;20158;-68
2022/04/03 12:10:44;;;;;;;8.20;5.47;;;;;;;;;;4933467;29;20056;-66
2022/04/03 12:13:17;;;;;;;8.48;5.90;;;;;;;;;;4940829;29;20072;-64
2022/04/03 12:15:43;;;;;;;8.77;5.80;;;;;;;;;;4951473;29;20027;-65
2022/04/03 12:18:10;;;;;;;8.98;6.40;;;;;;;;;;4952569;29;20548;-66
2022/04/03 12:20:36;;;;;;;9.07;5.88;;;;;;;;;;4952584;29;20024;-66
2022/04/03 12:23:07;;;;;;;10.00;6.47;;;;;;;;;;4951838;29;20142;-67
2022/04/03 12:25:33;;;;;;;9.80;6.13;;;;;;;;;;4952559;29;20035;-68
2022/04/03 12:27:59;;;;;;;12.18;6.22;;;;;;;;;;4952180;29;20059;-66
2022/04/03 12:30:25;;;;;;;8.90;6.55;;;;;;;;;;4952605;29;20106;-67
2022/04/03 12:32:51;;;;;;;10.73;6.13;;;;;;;;;;4952611;29;20023;-67
2022/04/03 12:35:18;;;;;;;11.63;6.07;;;;;;;;;;4952478;29;20106;-67
2022/04/03 12:37:44;;;;;;;12.80;6.60;;;;;;;;;;4951753;29;20035;-62
2022/04/03 12:40:15;;;;;;;12.50;6.70;;;;;;;;;;4952401;29;20575;-62
2022/04/03 12:42:44;;;;;;;9.20;6.38;;;;;;;;;;4952242;29;20526;-62
2022/04/03 12:45:15;;;;;;;10.55;5.53;;;;;;;;;;4952195;29;20118;-63
2022/04/03 12:47:41;;;;;;;10.88;6.22;;;;;;;;;;4951568;29;20437;-62
2022/04/03 12:50:18;;;;;;;9.10;6.30;;;;;;;;;;4952322;28;20031;-62
2022/04/03 12:52:44;;;;;;;13.45;6.07;;;;;;;;;;4955855;29;20391;-66
2022/04/03 12:55:22;;;;;;;10.05;5.50;;;;;;;;;;4956265;29;20031;-63
2022/04/03 12:58:28;;;;;;;9.13;5.88;;;;;;;;;;4955927;29;20035;-61
2022/04/03 13:00:56;;;;;;;9.93;5.38;;;;;;;;;;4944140;29;20563;-61
2022/04/03 13:03:35;;;;;;;8.55;5.30;;;;;;;;;;4947108;29;20046;-61
2022/04/03 13:06:20;;;;;;;11.43;6.22;;;;;;;;;;4939142;29;20035;-62
2022/04/03 13:08:54;;;;;;;9.88;6.32;;;;;;;;;;4950863;29;20038;-62
2022/04/03 13:11:27;;;;;;;9.60;5.18;;;;;;;;;;4955057;29;20019;-62
2022/04/03 13:13:53;;;;;;;;;;;;;;;;;;4960462;28;20068;-61
2022/04/03 13:16:19;;;;;;;9.13;6.18;;;;;;;;;;4954559;28;19910;-61
2022/04/03 13:18:45;;;;;;;9.85;5.88;;;;;;;;;;4970835;28;20030;-60
2022/04/03 13:21:18;;;;;;;8.90;5.45;;;;;;;;;;4959867;28;20039;-61
2022/04/03 13:23:44;;;;;;;8.73;5.45;;;;;;;;;;4963623;28;20179;-61
2022/04/03 13:26:10;;;;;;;8.98;6.40;;;;;;;;;;4967913;28;20027;-61
2022/04/03 13:28:36;;;;;;;9.25;6.50;;;;;;;;;;4958331;28;20023;-62
2022/04/03 13:31:02;;;;;;;11.85;6.30;;;;;;;;;;4970413;28;20060;-62
2022/04/03 13:33:29;;;;;;;8.57;6.15;;;;;;;;;;4962498;28;20117;-61
2022/04/03 13:35:55;;;;;;;8.95;5.93;;;;;;;;;;4963559;28;20034;-63
2022/04/03 13:38:21;;;;;;;9.70;5.45;;;;;;;;;;4968860;28;20034;-62
2022/04/03 13:40:47;;;;;;;7.65;5.63;;;;;;;;;;4958096;28;20383;-62
2022/04/03 13:43:13;;;;;;;9.43;6.18;;;;;;;;;;4968806;28;20031;-62
2022/04/03 13:46:00;;;;;;;10.35;6.15;;;;;;;;;;4963453;28;20026;-62
2022/04/03 13:48:39;;;;;;;9.90;6.40;;;;;;;;;;4958602;28;20484;-62
2022/04/03 13:51:07;;;;;;;12.00;7.28;;;;;;;;;;4940021;28;20054;-63
2022/04/03 13:53:33;;;;;;;9.25;6.35;;;;;;;;;;4952982;29;20608;-63
2022/04/03 13:55:59;;;;;;;11.65;7.22;;;;;;;;;;4949157;29;20102;-62
2022/04/03 13:58:26;;;;;;;11.57;7.65;;;;;;;;;;4968893;28;20109;-63
2022/04/03 14:00:56;;;;;;;9.48;6.50;;;;;;;;;;4957389;28;20019;-62
2022/04/03 14:03:24;;;;;;;9.18;6.45;;;;;;;;;;4966487;28;20063;-62
2022/04/03 14:05:50;;;;;;;11.25;6.60;;;;;;;;;;4964647;28;20039;-66
2022/04/03 14:08:16;;;;;;;9.57;6.43;;;;;;;;;;4959706;28;20102;-70
2022/04/03 14:10:47;;;;;;;10.65;6.68;;;;;;;;;;4969719;28;20102;-66
2022/04/03 14:13:23;;;;;;;13.15;8.23;;;;;;;;;;4956113;28;20042;-65
2022/04/03 14:15:50;;;;;;;10.77;7.03;;;;;;;;;;4953886;29;20074;-66
2022/04/03 14:18:17;;;;;;;9.77;6.32;;;;;;;;;;4940666;29;20043;-65
2022/04/03 14:20:43;;;;;;;9.68;6.55;;;;;;;;;;4936030;29;20031;-65
2022/04/03 14:23:10;;;;;;;10.43;7.55;;;;;;;;;;4948785;29;20103;-66
2022/04/03 14:25:36;;;;;;;10.88;6.93;;;;;;;;;;4934920;29;20031;-66
2022/04/03 14:28:03;;;;;;;10.55;6.55;;;;;;;;;;4946082;29;20034;-64
2022/04/03 14:30:29;;;;;;;10.35;6.90;;;;;;;;;;4938471;29;20027;-66
2022/04/03 14:32:57;;;;;;;12.82;8.25;;;;;;;;;;4950439;29;20027;-65
2022/04/03 14:35:23;;;;;;;10.82;7.72;;;;;;;;;;4941393;29;20488;-64
2022/04/03 14:37:49;;;;;;;11.43;8.00;;;;;;;;;;4944113;29;20412;-65
2022/04/03 14:40:16;;;;;;;14.00;8.73;;;;;;;;;;4934430;29;20032;-64
2022/04/03 14:42:42;;;;;;;10.38;7.43;;;;;;;;;;4949873;29;20044;-68
2022/04/03 14:45:09;;;;;;;12.27;7.80;;;;;;;;;;4952376;29;20031;-64
2022/04/03 14:47:35;;;;;;;13.07;8.20;;;;;;;;;;4953575;29;20479;-64
2022/04/03 14:50:02;;;;;;;12.13;8.13;;;;;;;;;;4953698;29;20039;-64
2022/04/03 14:52:28;;;;;;;12.68;8.10;;;;;;;;;;4938360;29;20040;-64
2022/04/03 14:54:54;;;;;;;11.48;8.02;;;;;;;;;;4950025;29;20031;-65
2022/04/03 14:57:20;;;;;;;12.00;8.07;;;;;;;;;;4940612;29;20033;-64
2022/04/03 14:59:47;;;;;;;12.23;7.88;;;;;;;;;;4943982;29;20023;-69
2022/04/03 15:02:13;;;;;;;14.70;9.60;;;;;;;;;;4946993;29;20495;-68
2022/04/03 15:04:39;;;;;;;13.85;9.02;;;;;;;;;;4937395;29;20377;-67
2022/04/03 15:07:10;;;;;;;16.20;9.68;;;;;;;;;;4949214;29;20118;-64
2022/04/03 15:09:36;;;;;;;13.23;8.88;;;;;;;;;;4942243;29;20491;-65
2022/04/03 15:12:04;;;;;;;15.00;9.23;;;;;;;;;;4941198;29;20491;-64
2022/04/03 15:14:30;;;;;;;17.48;10.02;;;;;;;;;;4933053;29;20384;-65
2022/04/03 15:16:57;;;;;;;12.05;7.50;;;;;;;;;;4936293;29;20030;-66
2022/04/03 15:19:26;;;;;;;11.27;6.45;;;;;;;;;;4944911;29;20027;-66
2022/04/03 15:21:53;;;;;;;9.52;5.85;;;;;;;;;;4961294;28;20448;-64
2022/04/03 15:24:20;;;;;;;8.45;5.60;;;;;;;;;;4958025;28;20027;-64
2022/04/03 15:26:50;;;;;;;8.27;5.57;;;;;;;;;;4968267;28;20030;-64
2022/04/03 15:29:18;;;;;;;8.98;6.28;;;;;;;;;;4958126;28;20026;-64
2022/04/03 15:31:45;;;;;;;9.77;6.07;;;;;;;;;;4962223;28;20027;-67
2022/04/03 15:34:11;;;;;;;8.02;5.63;;;;;;;;;;4965600;28;20139;-64
2022/04/03 15:36:38;;;;;;;8.05;5.80;;;;;;;;;;4955936;28;20376;-68
2022/04/03 15:39:05;;;;;;;8.55;6.03;;;;;;;;;;4968010;28;20146;-65
2022/04/03 15:41:34;;;;;;;9.77;6.07;;;;;;;;;;4959774;28;20129;-66
2022/04/03 15:44:01;;;;;;;11.07;6.43;;;;;;;;;;4960291;28;20033;-64
2022/04/03 15:46:27;;;;;;;10.35;6.95;;;;;;;;;;4967072;28;20038;-63
2022/04/03 15:48:53;;;;;;;10.60;6.40;;;;;;;;;;4952071;28;20027;-63
2022/04/03 15:51:22;;;;;;;12.45;7.68;;;;;;;;;;4947347;29;20087;-64
2022/04/03 15:53:49;;;;;;;12.07;7.72;;;;;;;;;;4943920;29;20036;-63
2022/04/03 15:56:15;;;;;;;10.68;7.32;;;;;;;;;;4950181;29;20019;-67
2022/04/03 15:58:41;;;;;;;10.95;7.35;;;;;;;;;;4952844;29;20052;-63
2022/04/03 16:01:07;;;;;;;11.38;7.50;;;;;;;;;;4953037;29;20031;-64
2022/04/03 16:03:34;;;;;;;9.65;6.75;;;;;;;;;;4953167;29;20031;-66
2022/04/03 16:06:00;;;;;;;11.38;6.90;;;;;;;;;;4953057;29;20019;-64
2022/04/03 16:08:26;;;;;;;9.35;6.43;;;;;;;;;;4953103;29;20475;-64
2022/04/03 16:10:54;;;;;;;9.73;6.22;;;;;;;;;;4952695;29;20039;-65
2022/04/03 16:13:20;;;;;;;9.93;6.47;;;;;;;;;;4952624;29;20091;-65
2022/04/03 16:15:46;;;;;;;12.07;6.60;;;;;;;;;;4953272;29;20456;-68
2022/04/03 16:18:12;;;;;;;9.80;6.65;;;;;;;;;;4952735;29;20027;-64
2022/04/03 16:20:38;;;;;;;9.45;6.22;;;;;;;;;;4952576;29;20023;-64
2022/04/03 16:23:04;;;;;;;10.52;6.35;;;;;;;;;;4952280;29;20150;-68
2022/04/03 16:25:30;;;;;;;9.02;6.10;;;;;;;;;;4954597;28;20027;-68
2022/04/03 16:27:56;;;;;;;9.35;6.13;;;;;;;;;;4958705;29;20027;-66
2022/04/03 16:30:22;;;;;;;8.10;5.53;;;;;;;;;;4959038;29;20082;-65
2022/04/03 16:32:49;;;;;;;9.82;6.68;;;;;;;;;;4958802;28;20023;-66
2022/04/03 16:35:15;;;;;;;11.30;6.65;;;;;;;;;;4958986;29;20031;-65
2022/04/03 16:37:42;;;;;;;12.35;7.43;;;;;;;;;;4958972;28;20547;-64
2022/04/03 16:40:09;;;;;;;11.55;6.90;;;;;;;;;;4958508;28;20035;-66
2022/04/03 16:42:35;;;;;;;10.98;7.60;;;;;;;;;;4958593;28;20038;-63
2022/04/03 16:45:01;;;;;;;10.88;7.47;;;;;;;;;;4958822;28;20500;-65
2022/04/03 16:47:27;;;;;;;12.52;7.80;;;;;;;;;;4958479;28;20034;-64
2022/04/03 16:49:54;;;;;;;11.80;7.65;;;;;;;;;;4958590;29;20033;-69
2022/04/03 16:52:20;;;;;;;12.55;7.60;;;;;;;;;;4958147;29;20031;-63
2022/04/03 16:54:46;;;;;;;11.00;7.45;;;;;;;;;;4958442;28;20035;-69
2022/04/03 16:57:12;;;;;;;10.75;7.78;;;;;;;;;;4958556;28;20031;-64
2022/04/03 16:59:38;;;;;;;11.57;7.70;;;;;;;;;;4958343;28;20062;-65
2022/04/03 17:02:04;;;;;;;14.23;7.22;;;;;;;;;;4958507;29;20074;-64
2022/04/03 17:04:31;;;;;;;12.98;7.88;;;;;;;;;;4958317;29;20031;-65
2022/04/03 17:06:57;;;;;;;12.20;7.68;;;;;;;;;;4958651;28;20031;-64
2022/04/03 17:09:23;;;;;;;12.05;8.07;;;;;;;;;;4958500;29;20030;-68
2022/04/03 17:11:49;;;;;;;12.43;8.15;;;;;;;;;;4958176;28;20109;-67
2022/04/03 17:14:15;;;;;;;14.10;8.80;;;;;;;;;;4958235;28;20028;-68
2022/04/03 17:16:42;;;;;;;13.18;8.60;;;;;;;;;;4958460;28;20098;-65
2022/04/03 17:19:08;;;;;;;12.50;8.82;;;;;;;;;;4958249;28;20046;-77
2022/04/03 17:21:35;;;;;;;14.48;8.52;;;;;;;;;;4958010;29;20885;-65
2022/04/03 17:24:01;;;;;;;14.65;9.70;;;;;;;;;;4949776;28;20098;-63
2022/04/03 17:26:28;;;;;;;15.30;8.60;;;;;;;;;;4954906;29;20539;-65
2022/04/03 17:28:54;;;;;;;12.13;8.00;;;;;;;;;;4956580;29;20029;-64
2022/04/03 17:31:20;;;;;;;13.48;8.77;;;;;;;;;;4958375;28;20027;-65
2022/04/03 17:33:47;;;;;;;14.95;9.25;;;;;;;;;;4941067;29;20030;-63
2022/04/03 17:36:14;;;;;;;15.93;9.13;;;;;;;;;;4958053;29;20031;-62
2022/04/03 17:38:41;;;;;;;15.95;9.35;;;;;;;;;;4954365;29;20499;-65
2022/04/03 17:41:07;;;;;;;13.98;8.95;;;;;;;;;;4954818;29;20173;-67
2022/04/03 17:43:33;;;;;;;11.48;8.45;;;;;;;;;;4937037;29;20095;-70
2022/04/03 17:46:00;;;;;;;14.63;9.43;;;;;;;;;;4935764;29;20102;-68
2022/04/03 17:48:26;;;;;;;12.77;8.85;;;;;;;;;;4935744;29;20489;-67
2022/04/03 17:50:57;;;;;;;14.93;9.48;;;;;;;;;;4935925;29;20092;-68
2022/04/03 17:53:24;;;;;;;13.43;9.00;;;;;;;;;;4935516;29;20492;-68
2022/04/03 17:55:54;;;;;;;13.93;9.57;;;;;;;;;;4935941;29;20020;-67
2022/04/03 17:58:20;;;;;;;15.23;9.07;;;;;;;;;;4935651;29;20087;-66
2022/04/03 18:00:47;;;;;;;18.63;10.02;;;;;;;;;;4935638;29;20478;-69
2022/04/03 18:03:22;;;;;;;15.07;9.43;;;;;;;;;;4935192;29;20363;-69
2022/04/03 18:06:06;;;;;;;13.95;9.60;;;;;;;;;;4935069;29;20028;-68
2022/04/03 18:14:39;;;;;;;15.30;10.15;;;;;;;;;;4935407;29;20042;-71
2022/04/03 18:23:33;;;;;;;17.95;10.95;;;;;;;;;;4934496;29;20111;-65
2022/04/03 18:28:50;;;;;;;18.23;10.50;;;;;;;;;;4934906;29;20496;-70
2022/04/03 18:31:17;;;;;;;18.45;10.93;;;;;;;;;;4935415;29;20508;-69
2022/04/03 18:33:46;;;;;;;27.35;16.88;;;;;;;;;;4934802;29;20035;-67
2022/04/03 18:41:45;;;;;;;18.55;11.32;;;;;;;;;;4954156;29;20067;-65
2022/04/03 18:47:21;;;;;;;19.52;11.75;;;;;;;;;;4954347;29;20058;-70
2022/04/03 18:49:47;;;;;;;18.83;11.90;;;;;;;;;;4953610;28;20490;-69
2022/04/03 18:52:13;;;;;;;18.17;12.15;;;;;;;;;;4953023;29;20031;-65
2022/04/03 18:54:39;;;;;;;31.00;19.00;;;;;;;;;;4953626;29;20520;-63
2022/04/03 18:57:06;;;;;;;21.55;12.73;;;;;;;;;;4953263;29;20415;-67
2022/04/03 18:59:32;;;;;;;21.88;12.27;;;;;;;;;;4953488;29;20044;-65
2022/04/03 19:02:00;;;;;;;28.60;14.23;;;;;;;;;;4952968;29;20035;-69
2022/04/03 19:04:27;;;;;;;20.42;13.30;;;;;;;;;;4953800;29;20038;-62
2022/04/03 19:06:53;;;;;;;19.90;12.98;;;;;;;;;;4953939;29;20450;-63
2022/04/03 19:09:23;;;;;;;18.98;13.20;;;;;;;;;;4953740;29;20058;-63
2022/04/03 19:18:02;;;;;;;19.77;12.82;;;;;;;;;;4953221;29;20506;-63
2022/04/03 19:24:10;;;;;;;20.83;12.82;;;;;;;;;;4952540;29;20066;-62
2022/04/03 19:26:48;;;;;;;20.42;12.68;;;;;;;;;;4952435;29;20051;-63
2022/04/03 19:29:33;;;;;;;22.35;12.05;;;;;;;;;;4952104;29;20105;-62
2022/04/03 19:32:04;;;;;;;20.20;12.85;;;;;;;;;;4953095;29;20095;-62
2022/04/03 19:34:40;;;;;;;16.77;11.30;;;;;;;;;;4952275;29;20083;-64
2022/04/03 19:37:06;;;;;;;18.70;11.10;;;;;;;;;;4952810;29;20185;-63
2022/04/03 19:39:36;;;;;;;19.95;11.85;;;;;;;;;;4952840;29;20027;-63
2022/04/03 19:42:11;;;;;;;21.30;12.88;;;;;;;;;;4952429;29;20039;-64
2022/04/03 19:44:56;;;;;;;19.10;11.55;;;;;;;;;;4952849;29;20118;-65
2022/04/03 19:47:40;;;;;;;18.60;11.40;;;;;;;;;;4952493;29;20037;-66
2022/04/03 19:50:10;;;;;;;19.15;10.85;;;;;;;;;;4952889;29;20031;-65
2022/04/03 19:52:37;;;;;;;17.50;10.85;;;;;;;;;;4951929;29;20046;-65
2022/04/03 19:55:04;;;;;;;18.52;10.63;;;;;;;;;;4952603;29;20114;-65
2022/04/03 19:57:30;;;;;;;16.60;10.27;;;;;;;;;;4952779;29;20028;-65
2022/04/03 19:59:56;;;;;;;18.48;12.07;;;;;;;;;;4951884;28;20559;-65
2022/04/03 20:02:23;;;;;;;18.98;11.23;;;;;;;;;;4952697;29;20365;-65
2022/04/03 20:04:49;;;;;;;17.88;10.75;;;;;;;;;;4951750;29;20027;-65
2022/04/03 20:07:15;;;;;;;15.85;11.20;;;;;;;;;;4953048;29;20508;-64
2022/04/03 20:09:41;;;;;;;17.02;11.02;;;;;;;;;;4948290;28;20106;-63
2022/04/03 20:12:29;;;;;;;18.38;11.30;;;;;;;;;;4933705;29;20098;-62
2022/04/03 20:15:13;;;;;;;17.98;10.90;;;;;;;;;;4946992;29;20027;-62
2022/04/03 20:21:06;;;;;;;20.88;12.60;;;;;;;;;;4939585;29;20079;-61
2022/04/03 20:24:01;;;;;;;19.20;12.23;;;;;;;;;;4950853;29;20107;-62
2022/04/03 20:29:53;;;;;;;17.35;11.10;;;;;;;;;;4937434;29;20538;-65
2022/04/03 20:32:22;;;;;;;19.92;11.93;;;;;;;;;;4941682;29;20035;-63
2022/04/03 20:34:48;;;;;;;17.92;11.32;;;;;;;;;;4951278;29;20390;-65
2022/04/03 20:37:14;;;;;;;17.45;11.45;;;;;;;;;;4951639;29;20020;-64
2022/04/03 20:39:40;;;;;;;18.80;12.07;;;;;;;;;;4950840;29;20042;-64